Time;durP1;ratioP1;P1;durP2;ratioP2;P2;SDS_P1;SDS_P2;PMS_P1;PMS_P2;Temp;Humidity;BMP_temperature;BMP_pressure;BME280_temperature;BME280_humidity;BME280_pressure;Samples;Min_cycle;Max_cycle;Signal;HPM_P1;HPM_P2
2021/09/06 00:01:33;;;;;;;11.48;9.50;;;;;;;13.97;42.39;96159.72;4987828;28;20038;-63
2021/09/06 00:03:58;;;;;;;15.60;11.05;;;;;;;13.76;42.66;96162.09;4987202;28;20376;-64
2021/09/06 00:06:24;;;;;;;14.07;11.02;;;;;;;13.79;42.57;96155.53;4987273;28;20038;-63
2021/09/06 00:08:49;;;;;;;12.40;9.68;;;;;;;13.86;42.39;96155.63;4987836;28;20026;-63
2021/09/06 00:11:14;;;;;;;11.38;9.32;;;;;;;13.87;42.34;96152.78;4986840;28;20035;-64
2021/09/06 00:13:40;;;;;;;13.23;9.35;;;;;;;13.85;42.28;96154.81;4987373;28;20042;-63
2021/09/06 00:16:06;;;;;;;12.35;9.38;;;;;;;13.79;42.77;96156.38;4987365;28;20073;-63
2021/09/06 00:18:31;;;;;;;12.15;9.52;;;;;;;13.76;42.56;96150.56;4998490;28;20037;-63
2021/09/06 00:20:58;;;;;;;13.73;9.18;;;;;;;13.69;42.60;96151.31;4987933;28;20148;-64
2021/09/06 00:23:25;;;;;;;14.75;10.27;;;;;;;13.68;42.54;96155.03;4987313;28;20170;-64
2021/09/06 00:25:50;;;;;;;13.80;10.25;;;;;;;13.64;42.85;96158.25;4987356;28;20125;-64
2021/09/06 00:28:15;;;;;;;13.15;10.07;;;;;;;13.59;42.57;96150.75;4987682;28;20124;-64
2021/09/06 00:30:41;;;;;;;15.18;11.15;;;;;;;13.54;43.16;96153.97;4987060;28;20042;-64
2021/09/06 00:33:07;;;;;;;14.20;10.70;;;;;;;13.49;42.82;96150.22;4987453;28;20026;-64
2021/09/06 00:35:32;;;;;;;12.85;9.90;;;;;;;13.47;42.59;96152.22;4966252;28;20050;-64
2021/09/06 00:37:57;;;;;;;14.02;9.93;;;;;;;13.49;42.68;96159.06;4970778;28;20431;-64
2021/09/06 00:40:23;;;;;;;12.30;9.57;;;;;;;13.42;42.84;96150.94;4987644;28;20387;-64
2021/09/06 00:42:48;;;;;;;15.73;10.45;;;;;;;13.41;42.63;96156.47;4987082;28;20049;-64
2021/09/06 00:45:14;;;;;;;12.45;9.27;;;;;;;13.39;42.28;96147.78;4987533;28;20678;-64
2021/09/06 00:47:40;;;;;;;11.77;9.45;;;;;;;13.37;42.52;96147.16;4986865;28;20057;-64
2021/09/06 00:50:07;;;;;;;13.30;9.32;;;;;;;13.33;42.47;96156.56;4985558;28;20026;-64
2021/09/06 00:52:35;;;;;;;13.35;9.73;;;;;;;13.25;42.80;96154.78;4987261;28;20042;-64
2021/09/06 00:55:01;;;;;;;13.48;9.73;;;;;;;13.21;42.75;96150.81;4986966;28;20042;-64
2021/09/06 00:57:26;;;;;;;12.35;9.38;;;;;;;13.20;42.98;96151.81;4985895;28;20042;-64
2021/09/06 00:59:52;;;;;;;12.23;9.70;;;;;;;13.15;43.10;96152.34;4969306;28;20046;-64
2021/09/06 01:02:17;;;;;;;14.18;9.30;;;;;;;13.16;43.23;96152.19;4985464;28;20041;-64
2021/09/06 01:04:43;;;;;;;13.23;9.75;;;;;;;13.17;42.97;96148.53;4985685;28;20045;-64
2021/09/06 01:07:09;;;;;;;13.52;9.90;;;;;;;13.18;43.00;96152.00;4986791;28;20043;-64
2021/09/06 01:09:34;;;;;;;13.10;9.75;;;;;;;13.23;43.04;96154.13;4987219;28;20030;-64
2021/09/06 01:12:00;;;;;;;12.45;9.20;;;;;;;13.24;42.75;96148.63;4984821;28;20101;-64
2021/09/06 01:14:25;;;;;;;13.25;9.48;;;;;;;13.25;42.59;96157.44;4986505;28;20034;-64
2021/09/06 01:16:51;;;;;;;12.60;9.13;;;;;;;13.24;42.89;96158.47;4985634;28;20939;-64
2021/09/06 01:19:16;;;;;;;12.60;9.18;;;;;;;13.24;42.87;96155.78;4998893;28;20511;-64
2021/09/06 01:21:42;;;;;;;13.25;10.23;;;;;;;13.17;42.93;96163.72;4990520;28;20113;-64
2021/09/06 01:24:07;;;;;;;11.40;8.70;;;;;;;13.14;42.66;96156.91;4990185;28;20034;-64
2021/09/06 01:26:32;;;;;;;13.15;9.68;;;;;;;13.11;42.81;96162.59;4990386;28;20404;-64
2021/09/06 01:28:58;;;;;;;12.95;9.30;;;;;;;13.10;42.65;96160.09;4988809;28;20737;-64
2021/09/06 01:31:24;;;;;;;11.80;9.02;;;;;;;13.05;42.62;96156.13;4990162;28;20554;-64
2021/09/06 01:33:50;;;;;;;11.57;9.27;;;;;;;13.02;42.27;96158.34;4989848;28;20120;-64
2021/09/06 01:36:15;;;;;;;12.25;9.48;;;;;;;12.99;42.47;96156.00;4972656;28;20030;-64
2021/09/06 01:38:40;;;;;;;14.38;9.77;;;;;;;12.91;42.32;96165.75;4989813;28;20050;-64
2021/09/06 01:41:06;;;;;;;12.85;9.98;;;;;;;12.83;42.95;96156.94;4990404;28;20030;-64
2021/09/06 01:43:31;;;;;;;15.13;9.45;;;;;;;12.79;42.92;96161.84;4985991;28;20065;-64
2021/09/06 01:45:57;;;;;;;13.88;10.20;;;;;;;12.75;42.88;96160.53;4989673;28;20039;-64
2021/09/06 01:48:22;;;;;;;15.20;10.50;;;;;;;12.73;42.93;96162.53;4988456;28;20056;-64
2021/09/06 01:50:48;;;;;;;14.35;9.82;;;;;;;12.72;42.75;96166.22;4989777;28;20047;-64
2021/09/06 01:53:13;;;;;;;13.48;9.45;;;;;;;12.71;42.92;96159.22;4989926;28;20026;-64
2021/09/06 01:55:38;;;;;;;13.30;8.85;;;;;;;12.74;42.53;96161.53;4989492;28;20101;-64
2021/09/06 01:58:04;;;;;;;12.85;9.45;;;;;;;12.77;42.62;96163.84;4980276;28;20038;-64
2021/09/06 02:00:29;;;;;;;12.93;9.43;;;;;;;12.77;42.68;96163.84;4989845;28;20092;-64
2021/09/06 02:02:55;;;;;;;10.95;8.60;;;;;;;12.75;42.67;96168.53;4989322;28;20045;-64
2021/09/06 02:05:20;;;;;;;11.80;8.88;;;;;;;12.74;42.91;96162.38;4989842;28;20041;-64
2021/09/06 02:07:46;;;;;;;11.77;8.77;;;;;;;12.74;42.44;96161.53;4989276;28;20053;-64
2021/09/06 02:10:11;;;;;;;13.25;9.18;;;;;;;12.70;42.35;96160.22;4987595;28;20037;-64
2021/09/06 02:12:36;;;;;;;10.90;8.52;;;;;;;12.65;42.52;96160.78;4989106;28;20108;-64
2021/09/06 02:15:02;;;;;;;12.55;9.48;;;;;;;12.57;42.71;96163.50;4980763;28;20031;-64
2021/09/06 02:17:28;;;;;;;12.63;9.23;;;;;;;12.48;42.83;96165.38;4984369;28;20042;-64
2021/09/06 02:19:53;;;;;;;12.35;8.80;;;;;;;12.42;42.86;96161.59;4988379;28;20065;-64
2021/09/06 02:22:18;;;;;;;12.32;8.55;;;;;;;12.40;42.58;96163.59;4989032;28;20038;-64
2021/09/06 02:24:44;;;;;;;13.02;8.88;;;;;;;12.39;42.37;96157.44;4989320;28;20175;-64
2021/09/06 02:27:09;;;;;;;11.23;8.85;;;;;;;12.35;42.72;96160.63;4988887;28;20034;-64
2021/09/06 02:29:35;;;;;;;12.73;8.68;;;;;;;12.35;42.65;96165.97;4988720;28;20065;-64
2021/09/06 02:32:00;;;;;;;11.93;8.73;;;;;;;12.31;42.58;96161.97;4980016;28;20038;-64
2021/09/06 02:34:26;;;;;;;12.38;8.90;;;;;;;12.25;43.17;96176.84;4988855;28;20046;-64
2021/09/06 02:36:52;;;;;;;12.52;9.40;;;;;;;12.21;42.84;96168.34;4989001;28;20038;-64
2021/09/06 02:39:17;;;;;;;10.95;8.40;;;;;;;12.20;42.85;96174.72;4988253;28;20050;-64
2021/09/06 02:41:42;;;;;;;11.88;8.35;;;;;;;12.22;42.78;96171.88;4988700;28;20029;-64
2021/09/06 02:44:08;;;;;;;10.93;8.32;;;;;;;12.20;42.73;96165.88;4979971;28;20018;-65
2021/09/06 02:46:33;;;;;;;11.38;8.13;;;;;;;12.23;42.74;96173.53;4985873;28;20034;-64
2021/09/06 02:48:59;;;;;;;10.63;8.20;;;;;;;12.31;42.49;96170.00;4989073;28;20042;-64
2021/09/06 02:51:24;;;;;;;12.32;8.15;;;;;;;12.25;42.94;96171.53;4988768;28;20034;-64
2021/09/06 02:53:49;;;;;;;11.77;9.02;;;;;;;12.20;42.64;96174.72;4988615;28;20039;-64
2021/09/06 02:56:15;;;;;;;11.30;8.07;;;;;;;12.18;42.83;96174.06;4989119;28;20468;-64
2021/09/06 02:58:40;;;;;;;11.30;8.35;;;;;;;12.17;42.86;96164.38;4978829;28;20038;-64
2021/09/06 03:01:06;;;;;;;14.05;8.35;;;;;;;12.13;42.75;96173.72;4988707;28;20034;-64
2021/09/06 03:03:31;;;;;;;9.68;7.35;;;;;;;12.10;42.74;96169.59;4988557;28;20046;-64
2021/09/06 03:05:58;;;;;;;10.68;8.25;;;;;;;12.05;43.34;96160.41;4987723;28;20038;-64
2021/09/06 03:08:24;;;;;;;12.75;8.23;;;;;;;11.98;43.46;96166.44;4989112;28;20080;-64
2021/09/06 03:10:49;;;;;;;10.40;7.07;;;;;;;11.98;43.13;96157.59;4986731;28;20074;-64
2021/09/06 03:13:14;;;;;;;11.38;7.68;;;;;;;12.01;42.98;96162.59;4988129;28;20058;-64
2021/09/06 03:15:40;;;;;;;10.20;7.45;;;;;;;11.98;42.79;96163.78;4976680;28;20046;-64
2021/09/06 03:18:05;;;;;;;9.60;7.13;;;;;;;11.93;42.83;96163.44;4983801;28;20045;-64
2021/09/06 03:20:31;;;;;;;10.45;7.18;;;;;;;11.86;43.13;96157.13;4988705;28;20228;-64
2021/09/06 03:22:56;;;;;;;10.35;7.32;;;;;;;11.80;43.53;96152.50;4987828;28;20038;-64
2021/09/06 03:25:22;;;;;;;11.82;7.68;;;;;;;11.75;43.56;96155.69;4988294;28;20034;-64
2021/09/06 03:27:47;;;;;;;10.05;7.18;;;;;;;11.71;43.63;96157.03;4987977;28;20484;-64
2021/09/06 03:30:13;;;;;;;9.52;7.30;;;;;;;11.64;43.61;96154.22;4987732;28;20034;-64
2021/09/06 03:32:38;;;;;;;11.52;7.35;;;;;;;11.60;43.28;96152.91;4988294;28;20030;-64
2021/09/06 03:35:04;;;;;;;10.48;6.55;;;;;;;11.56;43.60;96152.41;4987583;28;20097;-64
2021/09/06 03:37:29;;;;;;;9.35;6.75;;;;;;;11.56;43.52;96152.41;4988261;28;20042;-64
2021/09/06 03:39:54;;;;;;;10.32;6.90;;;;;;;11.56;43.83;96149.75;4987900;28;20030;-64
2021/09/06 03:42:20;;;;;;;10.13;7.32;;;;;;;11.63;44.05;96152.59;4987470;28;20062;-64
2021/09/06 03:44:45;;;;;;;10.20;7.32;;;;;;;11.63;43.73;96148.06;4983962;28;20096;-64
2021/09/06 03:47:11;;;;;;;10.75;7.05;;;;;;;11.61;43.76;96150.09;4987271;28;20311;-64
2021/09/06 03:49:36;;;;;;;10.90;7.43;;;;;;;11.55;44.04;96149.91;4987214;28;20460;-64
2021/09/06 03:52:02;;;;;;;9.65;7.00;;;;;;;11.52;43.84;96153.75;4987617;28;20128;-64
2021/09/06 03:54:27;;;;;;;9.90;7.50;;;;;;;11.46;44.30;96147.28;4987461;28;20432;-64
2021/09/06 03:56:52;;;;;;;9.85;6.45;;;;;;;11.46;44.13;96141.94;4987611;28;20042;-64
2021/09/06 03:59:19;;;;;;;9.60;6.93;;;;;;;11.52;44.24;96141.28;4985995;28;20038;-64
2021/09/06 04:01:45;;;;;;;8.63;6.35;;;;;;;11.53;44.48;96147.44;4987419;28;20439;-64
2021/09/06 04:04:10;;;;;;;9.73;6.63;;;;;;;11.50;44.31;96151.25;4970089;28;20035;-64
2021/09/06 04:06:35;;;;;;;9.02;6.05;;;;;;;11.42;44.19;96147.81;4987351;28;20046;-64
2021/09/06 04:09:01;;;;;;;8.55;5.80;;;;;;;11.37;44.30;96148.31;4987411;28;20056;-64
2021/09/06 04:11:26;;;;;;;7.80;5.15;;;;;;;11.32;44.37;96145.31;4987143;28;20030;-64
2021/09/06 04:13:52;;;;;;;8.18;5.70;;;;;;;11.27;44.50;96153.81;4987179;28;20046;-64
2021/09/06 04:16:17;;;;;;;9.45;6.20;;;;;;;11.25;44.81;96155.81;4987627;28;20042;-64
2021/09/06 04:18:43;;;;;;;8.05;5.63;;;;;;;11.28;44.73;96155.47;4977244;28;20050;-64
2021/09/06 04:21:08;;;;;;;9.27;6.07;;;;;;;11.24;44.84;96163.00;4968394;28;20038;-64
2021/09/06 04:23:34;;;;;;;7.45;5.43;;;;;;;11.23;44.95;96164.00;4983151;28;20030;-64
2021/09/06 04:26:02;;;;;;;8.88;6.82;;;;;;;11.18;44.83;96165.50;4987522;28;20047;-64
2021/09/06 04:28:27;;;;;;;;;;;;;;;11.06;45.77;96164.97;4988484;28;20030;-64
2021/09/06 04:30:53;;;;;;;8.10;5.55;;;;;;;11.09;44.92;96170.00;4987765;28;19925;-64
2021/09/06 04:33:18;;;;;;;9.35;5.60;;;;;;;11.09;44.83;96167.34;4987952;28;20374;-64
2021/09/06 04:35:44;;;;;;;9.63;5.63;;;;;;;11.06;45.42;96172.97;4987672;28;20135;-64
2021/09/06 04:38:09;;;;;;;7.25;5.07;;;;;;;11.03;44.95;96171.47;4987365;28;20411;-64
2021/09/06 04:40:35;;;;;;;8.88;5.50;;;;;;;11.04;44.97;96170.47;4987657;28;20390;-64
2021/09/06 04:43:00;;;;;;;7.88;5.57;;;;;;;11.04;45.36;96177.63;4986487;28;20134;-64
2021/09/06 04:45:25;;;;;;;8.90;6.13;;;;;;;11.01;45.65;96176.13;4985320;28;20030;-64
2021/09/06 04:47:51;;;;;;;7.40;5.53;;;;;;;11.02;45.83;96176.97;4986233;28;20407;-64
2021/09/06 04:50:16;;;;;;;5.80;4.72;;;;;;;11.03;45.23;96174.13;4976505;28;20327;-64
2021/09/06 04:52:42;;;;;;;9.00;6.22;;;;;;;11.02;45.64;96174.31;4981581;28;20581;-64
2021/09/06 04:55:07;;;;;;;8.80;5.68;;;;;;;11.00;45.63;96169.13;4983247;28;20049;-64
2021/09/06 04:57:33;;;;;;;8.32;5.32;;;;;;;10.97;45.89;96175.63;4984890;28;20076;-64
2021/09/06 04:59:59;;;;;;;8.45;5.75;;;;;;;10.92;46.68;96179.81;4965939;28;20086;-64
2021/09/06 05:02:24;;;;;;;6.88;5.00;;;;;;;10.96;46.08;96179.31;4973313;28;20041;-64
2021/09/06 05:04:49;;;;;;;6.10;4.85;;;;;;;11.00;46.21;96185.97;4986169;28;20057;-64
2021/09/06 05:07:15;;;;;;;6.10;4.75;;;;;;;11.06;45.95;96181.81;4984604;28;20038;-64
2021/09/06 05:09:40;;;;;;;7.18;5.07;;;;;;;11.10;45.94;96191.16;4984761;28;20037;-64
2021/09/06 05:12:06;;;;;;;7.30;4.60;;;;;;;11.13;46.05;96189.97;4983454;28;20080;-64
2021/09/06 05:14:31;;;;;;;7.75;4.90;;;;;;;11.16;45.80;96194.16;4985230;28;20074;-64
2021/09/06 05:16:57;;;;;;;7.32;4.95;;;;;;;11.18;46.02;96190.31;4984891;28;20429;-64
2021/09/06 05:19:22;;;;;;;7.53;5.45;;;;;;;11.23;45.76;96195.13;4984546;28;20440;-64
2021/09/06 05:21:48;;;;;;;8.88;5.45;;;;;;;11.25;46.05;96198.44;4984554;28;20951;-64
2021/09/06 05:24:13;;;;;;;5.90;4.78;;;;;;;11.33;46.10;96195.81;4984776;28;20206;-64
2021/09/06 05:26:38;;;;;;;7.70;4.80;;;;;;;11.39;45.63;96203.09;4985000;28;20034;-64
2021/09/06 05:29:04;;;;;;;7.03;4.40;;;;;;;11.42;46.02;96198.47;4984794;28;20038;-64
2021/09/06 05:31:29;;;;;;;7.22;4.47;;;;;;;11.49;45.86;96197.59;4984672;28;20043;-64
2021/09/06 05:33:55;;;;;;;6.60;4.65;;;;;;;11.59;45.85;96193.94;4984161;28;20395;-64
2021/09/06 05:36:20;;;;;;;7.93;4.88;;;;;;;11.64;45.97;96200.41;4985270;28;20863;-64
2021/09/06 05:38:46;;;;;;;6.32;4.60;;;;;;;11.73;46.16;96205.72;4983628;28;20046;-64
2021/09/06 05:41:15;;;;;;;7.75;5.95;;;;;;;11.77;46.72;96204.38;4985144;28;20093;-63
2021/09/06 05:43:40;;;;;;;7.60;5.20;;;;;;;11.92;46.68;96206.31;4945618;28;20729;-63
2021/09/06 05:46:05;;;;;;;7.10;5.00;;;;;;;12.06;46.42;96210.97;4968926;28;20112;-63
2021/09/06 05:48:31;;;;;;;7.18;4.72;;;;;;;12.21;46.42;96220.94;4984684;28;20082;-63
2021/09/06 05:50:56;;;;;;;7.93;4.82;;;;;;;12.30;46.32;96217.19;4984845;28;20085;-64
2021/09/06 05:53:22;;;;;;;9.20;5.00;;;;;;;12.41;46.26;96224.81;4980788;28;20470;-64
2021/09/06 05:55:47;;;;;;;6.40;4.82;;;;;;;12.51;46.29;96221.94;4984289;28;20038;-64
2021/09/06 05:58:13;;;;;;;8.82;5.60;;;;;;;12.66;46.27;96222.03;4981984;28;20033;-64
2021/09/06 06:00:38;;;;;;;7.03;5.10;;;;;;;12.83;46.25;96227.25;4984185;28;20070;-64
2021/09/06 06:03:03;;;;;;;8.50;5.18;;;;;;;13.00;46.34;96224.50;4983883;28;20038;-64
2021/09/06 06:05:29;;;;;;;9.02;4.90;;;;;;;13.18;46.15;96232.22;4966159;28;20232;-64
2021/09/06 06:07:54;;;;;;;9.65;5.15;;;;;;;13.38;45.90;96229.88;4963704;28;20391;-64
2021/09/06 06:10:20;;;;;;;7.68;5.00;;;;;;;13.57;45.78;96235.72;4971192;28;20546;-64
2021/09/06 06:12:45;;;;;;;8.20;5.00;;;;;;;13.75;45.56;96229.19;4985871;28;20538;-64
2021/09/06 06:15:11;;;;;;;6.22;5.07;;;;;;;13.94;45.61;96228.66;4984713;28;20122;-64
2021/09/06 06:17:39;;;;;;;7.75;4.97;;;;;;;14.06;46.02;96230.88;4985382;28;20084;-64
2021/09/06 06:20:04;;;;;;;;;;;;;;;14.19;46.06;96233.75;4984446;28;20026;-64
2021/09/06 06:22:29;;;;;;;6.50;4.68;;;;;;;14.42;45.47;96224.75;4985312;28;19972;-64
2021/09/06 06:24:55;;;;;;;8.57;6.28;;;;;;;14.57;45.12;96229.25;4980308;28;20110;-64
2021/09/06 06:27:20;;;;;;;7.72;6.00;;;;;;;14.67;45.48;96231.63;4976650;28;20117;-64
2021/09/06 06:29:46;;;;;;;8.50;6.25;;;;;;;14.71;45.59;96224.84;4983713;28;20038;-64
2021/09/06 06:32:11;;;;;;;8.48;6.80;;;;;;;14.85;45.22;96228.53;4981497;28;20447;-64
2021/09/06 06:34:37;;;;;;;8.75;7.03;;;;;;;15.03;44.47;96225.41;4979252;28;20546;-64
2021/09/06 06:37:03;;;;;;;8.02;5.95;;;;;;;15.21;45.41;96221.47;4960894;28;20443;-64
2021/09/06 06:39:29;;;;;;;8.88;5.97;;;;;;;15.36;45.77;96235.63;4969140;28;20042;-64
2021/09/06 06:41:54;;;;;;;8.85;5.63;;;;;;;15.56;45.77;96226.94;4976329;28;20088;-64
2021/09/06 06:44:19;;;;;;;10.25;5.80;;;;;;;15.75;45.68;96228.09;4972557;28;20053;-64
2021/09/06 06:46:45;;;;;;;8.68;5.82;;;;;;;15.99;45.47;96230.50;4976081;28;20049;-64
2021/09/06 06:49:10;;;;;;;9.02;5.97;;;;;;;16.20;45.80;96232.28;4982867;28;20204;-64
2021/09/06 06:51:36;;;;;;;11.25;7.80;;;;;;;16.39;45.01;96238.78;4984070;28;20038;-64
2021/09/06 06:54:01;;;;;;;8.13;6.00;;;;;;;16.68;45.00;96243.22;4977253;28;20039;-64
2021/09/06 06:56:27;;;;;;;11.50;7.43;;;;;;;16.90;44.29;96242.06;4961608;28;20467;-64
2021/09/06 06:58:52;;;;;;;7.45;5.78;;;;;;;17.16;44.56;96231.56;4963061;28;20235;-64
2021/09/06 07:01:17;;;;;;;9.07;5.70;;;;;;;17.41;44.64;96239.88;4984546;28;20026;-64
2021/09/06 07:03:43;;;;;;;17.83;14.93;;;;;;;17.43;40.02;96230.78;4982268;28;20388;-64
2021/09/06 07:06:08;;;;;;;15.93;13.40;;;;;;;17.59;40.01;96235.75;4982800;28;20041;-63
2021/09/06 07:08:34;;;;;;;17.58;13.65;;;;;;;17.81;39.59;96238.19;4983156;28;20087;-63
2021/09/06 07:10:59;;;;;;;15.88;12.15;;;;;;;17.99;38.85;96239.44;4982669;28;20044;-64
2021/09/06 07:13:25;;;;;;;15.25;11.73;;;;;;;18.21;38.97;96250.78;4983283;28;20058;-64
2021/09/06 07:15:50;;;;;;;13.63;9.82;;;;;;;18.44;39.00;96241.38;4981881;28;20772;-63
2021/09/06 07:18:16;;;;;;;9.88;8.30;;;;;;;18.61;41.02;96247.16;4982224;28;20061;-63
2021/09/06 07:20:41;;;;;;;13.85;10.55;;;;;;;18.78;38.59;96242.09;4983117;28;20034;-63
2021/09/06 07:23:06;;;;;;;12.95;10.60;;;;;;;18.99;37.83;96248.19;4983840;28;20038;-63
2021/09/06 07:25:32;;;;;;;12.65;10.40;;;;;;;19.20;37.49;96246.19;4983096;28;20094;-63
2021/09/06 07:27:57;;;;;;;10.45;8.27;;;;;;;19.46;37.45;96247.91;4985104;28;20074;-63
2021/09/06 07:30:23;;;;;;;10.30;7.85;;;;;;;19.65;36.98;96245.25;4984961;28;20335;-63
2021/09/06 07:32:48;;;;;;;7.00;5.60;;;;;;;19.71;37.17;96254.31;4985815;28;20523;-62
2021/09/06 07:35:15;;;;;;;11.55;5.80;;;;;;;19.94;37.01;96253.72;4984424;28;20443;-63
2021/09/06 07:37:40;;;;;;;7.28;5.72;;;;;;;19.64;36.89;96256.28;4966809;28;20030;-63
2021/09/06 07:40:10;;;;;;;9.38;5.82;;;;;;;19.63;37.28;96268.13;4984204;28;20034;-63
2021/09/06 07:42:35;;;;;;;8.73;6.20;;;;;;;19.77;37.28;96261.56;4968636;28;20031;-63
2021/09/06 07:45:01;;;;;;;6.93;5.53;;;;;;;19.84;37.03;96269.59;4981038;28;20023;-63
2021/09/06 07:47:26;;;;;;;7.57;5.78;;;;;;;19.87;37.09;96268.31;4983089;28;20042;-64
2021/09/06 07:49:52;;;;;;;7.78;5.63;;;;;;;20.35;35.21;96280.34;4981875;28;20109;-62
2021/09/06 07:52:17;;;;;;;8.55;6.15;;;;;;;20.48;35.10;96276.66;4985097;28;20031;-62
2021/09/06 07:54:42;;;;;;;11.93;8.23;;;;;;;20.14;35.65;96284.31;4983431;28;20046;-64
2021/09/06 07:57:08;;;;;;;7.57;5.85;;;;;;;19.72;34.64;96283.81;4982087;28;20034;-63
2021/09/06 07:59:33;;;;;;;14.20;11.23;;;;;;;19.44;35.68;96293.19;4980733;28;20043;-63
2021/09/06 08:01:59;;;;;;;24.77;17.60;;;;;;;18.84;36.56;96290.81;4980787;28;20042;-63
2021/09/06 08:04:26;;;;;;;12.90;9.85;;;;;;;19.40;35.71;96283.88;4982991;28;20023;-63
2021/09/06 08:06:51;;;;;;;8.02;5.65;;;;;;;20.04;35.56;96291.06;4981744;28;20468;-64
2021/09/06 08:09:17;;;;;;;9.45;7.15;;;;;;;20.31;34.71;96285.38;4981215;28;20034;-64
2021/09/06 08:11:45;;;;;;;8.40;5.60;;;;;;;21.11;32.84;96292.78;4981929;28;20130;-63
2021/09/06 08:14:11;;;;;;;7.65;5.65;;;;;;;21.48;32.21;96295.38;4982196;28;20057;-63
2021/09/06 08:16:37;;;;;;;8.20;5.45;;;;;;;20.99;33.38;96285.44;4980570;28;20145;-62
2021/09/06 08:19:02;;;;;;;7.65;5.72;;;;;;;21.21;33.47;96289.50;4982019;28;20069;-62
2021/09/06 08:21:29;;;;;;;8.10;5.30;;;;;;;21.81;33.26;96293.19;4981430;28;20067;-63
2021/09/06 08:23:54;;;;;;;72.15;47.53;;;;;;;21.32;33.28;96305.00;4978002;28;20026;-62
2021/09/06 08:26:21;;;;;;;10.57;5.40;;;;;;;21.35;33.27;96306.41;4976281;28;20474;-63
2021/09/06 08:28:46;;;;;;;7.05;5.43;;;;;;;20.58;34.30;96312.13;4981787;28;20030;-62
2021/09/06 08:31:12;;;;;;;50.35;31.13;;;;;;;21.04;33.91;96303.66;4985385;28;20041;-65
2021/09/06 08:33:37;;;;;;;14.07;10.25;;;;;;;21.51;33.76;96315.75;4984793;28;20037;-62
2021/09/06 08:36:03;;;;;;;9.55;6.32;;;;;;;21.97;32.57;96304.44;4985612;28;20042;-63
2021/09/06 08:38:28;;;;;;;8.52;5.20;;;;;;;22.54;31.43;96308.44;4985065;28;20388;-63
2021/09/06 08:40:54;;;;;;;6.80;4.72;;;;;;;23.03;30.99;96313.50;4985690;28;20038;-62
2021/09/06 08:43:19;;;;;;;8.38;6.35;;;;;;;23.22;30.90;96315.22;4983622;28;20050;-62
2021/09/06 08:45:45;;;;;;;8.40;5.93;;;;;;;22.91;31.64;96318.13;4985352;28;20026;-63
2021/09/06 08:48:10;;;;;;;7.45;5.78;;;;;;;22.37;31.36;96309.13;4985732;28;20413;-62
2021/09/06 08:50:36;;;;;;;6.50;5.50;;;;;;;20.31;34.74;96312.41;4983744;28;20392;-63
2021/09/06 08:53:01;;;;;;;27.38;17.25;;;;;;;21.02;33.98;96319.31;4984366;28;20538;-62
2021/09/06 08:55:27;;;;;;;16.35;10.70;;;;;;;22.39;31.89;96317.84;4984716;28;20442;-62
2021/09/06 08:57:53;;;;;;;17.23;13.20;;;;;;;22.88;31.05;96314.00;4985670;28;20038;-62
2021/09/06 09:00:28;;;;;;;14.52;10.70;;;;;;;23.03;30.97;96320.78;4985013;28;20547;-62
2021/09/06 09:02:54;;;;;;;9.45;5.68;;;;;;;23.07;30.13;96321.97;4986394;28;20035;-62
2021/09/06 09:05:19;;;;;;;12.95;10.48;;;;;;;23.15;30.32;96321.59;4986426;28;20061;-62
2021/09/06 09:07:45;;;;;;;11.98;9.00;;;;;;;23.41;30.52;96327.50;4985053;28;20042;-62
2021/09/06 09:10:11;;;;;;;8.60;5.95;;;;;;;22.98;30.01;96326.13;4984617;28;20123;-62
2021/09/06 09:12:38;;;;;;;15.43;10.23;;;;;;;20.85;32.63;96327.25;4987081;28;20451;-62
2021/09/06 09:15:04;;;;;;;8.37;5.70;;;;;;;21.25;31.59;96329.41;4988661;28;20049;-62
2021/09/06 09:17:30;;;;;;;5.95;4.78;;;;;;;22.26;30.55;96331.63;4990439;28;20293;-62
2021/09/06 09:20:05;;;;;;;9.37;6.80;;;;;;;23.04;29.68;96333.28;4988327;28;20069;-62
2021/09/06 09:22:32;;;;;;;39.25;6.75;;;;;;;24.01;28.80;96331.78;4988701;28;20042;-62
2021/09/06 09:25:03;;;;;;;7.72;5.10;;;;;;;23.21;29.66;96340.72;4988785;28;20472;-62
2021/09/06 09:27:33;;;;;;;7.07;5.20;;;;;;;23.98;27.35;96343.16;4988570;28;20124;-62
2021/09/06 09:29:59;;;;;;;9.10;5.20;;;;;;;23.08;29.24;96341.81;4985960;28;20042;-62
2021/09/06 09:32:25;;;;;;;7.65;5.57;;;;;;;23.48;28.76;96340.13;4989107;28;20468;-62
2021/09/06 09:34:50;;;;;;;10.87;5.50;;;;;;;23.52;28.75;96333.13;4988558;28;20057;-62
2021/09/06 09:37:23;;;;;;;8.13;5.70;;;;;;;23.24;29.40;96335.63;4982862;28;20149;-62
2021/09/06 09:39:56;;;;;;;7.38;5.00;;;;;;;24.15;28.49;96335.81;4984261;28;20466;-62
2021/09/06 09:42:21;;;;;;;7.30;5.47;;;;;;;22.66;30.68;96335.53;4983973;28;20302;-77
2021/09/06 09:44:48;;;;;;;6.53;4.97;;;;;;;24.26;28.36;96328.63;4985311;28;20487;-76
2021/09/06 09:47:14;;;;;;;;;;;;;;;24.79;28.07;96325.56;4986284;28;20050;-79
2021/09/06 09:49:42;;;;;;;8.18;5.38;;;;;;;23.72;29.03;96334.56;4985368;28;20317;-76
2021/09/06 09:52:07;;;;;;;7.40;5.60;;;;;;;25.39;25.73;96335.75;4986172;28;20053;-76
2021/09/06 09:54:33;;;;;;;6.93;5.17;;;;;;;24.94;27.23;96329.56;4985080;28;20770;-76
2021/09/06 09:56:58;;;;;;;5.80;4.97;;;;;;;25.79;25.98;96327.44;4984829;28;20112;-76
2021/09/06 09:59:24;;;;;;;7.40;5.40;;;;;;;25.85;26.83;96329.13;4982523;28;20034;-76
2021/09/06 10:02:26;;;;;;;8.83;5.50;;;;;;;25.27;26.63;96330.47;4984061;28;20550;-75
2021/09/06 10:04:57;;;;;;;6.35;5.13;;;;;;;24.73;29.09;96326.56;4945266;28;20079;-77
2021/09/06 10:07:26;;;;;;;8.38;5.65;;;;;;;24.79;28.95;96322.84;4974698;28;20093;-76
2021/09/06 10:09:52;;;;;;;9.38;6.05;;;;;;;24.58;27.95;96335.38;4966085;28;20045;-76
2021/09/06 10:12:25;;;;;;;9.10;5.45;;;;;;;24.87;27.05;96323.44;4949896;28;20050;-76
2021/09/06 10:15:01;;;;;;;8.98;5.75;;;;;;;24.01;29.51;96335.34;4966285;28;20609;-76
2021/09/06 10:17:47;;;;;;;7.55;5.25;;;;;;;23.64;28.34;96336.59;4966563;28;20419;-76
2021/09/06 10:20:12;;;;;;;6.88;5.20;;;;;;;24.68;28.20;96327.31;4982471;28;20124;-76
2021/09/06 10:22:41;;;;;;;8.43;5.20;;;;;;;25.64;27.58;96336.31;4983046;28;20046;-75
2021/09/06 10:25:08;;;;;;;8.95;5.57;;;;;;;25.86;26.55;96333.50;4968815;28;20127;-76
2021/09/06 10:27:35;;;;;;;;;;;;;;;25.35;26.62;96323.72;4966100;28;20038;-75
2021/09/06 10:30:09;;;;;;;7.82;4.68;;;;;;;26.14;24.33;96330.75;4981631;28;20030;-76
2021/09/06 10:32:42;;;;;;;7.22;4.80;;;;;;;26.53;24.17;96329.59;4966423;28;20061;-75
2021/09/06 10:35:12;;;;;;;8.70;4.40;;;;;;;26.06;24.70;96326.56;4983275;28;20547;-75
2021/09/06 10:37:39;;;;;;;6.43;4.70;;;;;;;25.61;24.33;96321.28;4981724;28;20092;-75
2021/09/06 10:40:09;;;;;;;7.32;4.20;;;;;;;25.47;24.53;96329.06;4982168;28;20038;-75
2021/09/06 10:42:35;;;;;;;7.10;4.82;;;;;;;25.36;25.82;96325.41;4981754;28;20065;-75
2021/09/06 10:45:01;;;;;;;5.87;4.63;;;;;;;25.66;24.79;96324.06;4982009;28;20487;-75
2021/09/06 10:47:36;;;;;;;7.05;5.00;;;;;;;25.52;26.43;96325.59;4965967;28;20057;-75
2021/09/06 10:50:22;;;;;;;8.20;5.20;;;;;;;25.01;25.62;96326.66;4981785;28;20112;-75
2021/09/06 10:52:49;;;;;;;6.37;4.90;;;;;;;24.86;26.92;96316.38;4980989;28;20053;-76
2021/09/06 10:55:15;;;;;;;5.85;4.90;;;;;;;24.76;26.93;96319.78;4965137;28;20102;-77
2021/09/06 10:57:41;;;;;;;6.75;5.07;;;;;;;24.98;27.09;96321.72;4962594;28;20058;-77
2021/09/06 11:00:08;;;;;;;9.60;4.90;;;;;;;24.88;27.22;96319.66;4966317;28;20426;-78
2021/09/06 11:02:34;;;;;;;9.05;4.80;;;;;;;25.08;25.82;96319.09;4964713;28;20420;-77
2021/09/06 11:05:00;;;;;;;6.25;4.57;;;;;;;25.10;26.36;96316.94;4950229;28;20042;-78
2021/09/06 11:07:25;;;;;;;7.85;5.00;;;;;;;25.12;27.57;96317.50;4975723;28;20038;-77
2021/09/06 11:09:50;;;;;;;5.80;4.57;;;;;;;25.27;27.94;96321.47;4981843;28;20510;-77
2021/09/06 11:12:16;;;;;;;5.97;4.60;;;;;;;25.49;27.07;96318.72;4981562;28;20058;-75
2021/09/06 11:14:43;;;;;;;7.80;4.82;;;;;;;25.63;25.27;96323.75;4961093;28;20046;-76
2021/09/06 11:17:19;;;;;;;6.85;4.38;;;;;;;25.46;25.26;96325.50;4965367;28;20054;-76
2021/09/06 11:19:44;;;;;;;6.03;4.60;;;;;;;25.22;25.03;96314.91;4970250;28;20121;-76
2021/09/06 11:22:14;;;;;;;8.43;4.65;;;;;;;25.18;25.76;96324.66;4982335;28;20259;-77
2021/09/06 11:24:40;;;;;;;5.88;4.40;;;;;;;25.35;25.37;96323.72;4955721;28;20030;-76